createdAt,value
2023-03-06T00:00:25.052Z,98157.47
2023-03-06T00:02:52.388Z,98145.69
2023-03-06T00:05:19.702Z,98153.25
2023-03-06T00:07:46.598Z,98145.59
2023-03-06T00:10:21.416Z,98139.09
2023-03-06T00:12:48.143Z,98135.19
2023-03-06T00:15:15.193Z,98137.63
2023-03-06T00:17:41.879Z,98136.91
2023-03-06T00:20:11.158Z,98131.34
2023-03-06T00:22:38.297Z,98128.59
2023-03-06T00:25:05.976Z,98126.84
2023-03-06T00:27:33.219Z,98120.09
2023-03-06T00:30:01.442Z,98124.72
2023-03-06T00:32:29.162Z,98121.63
2023-03-06T00:34:56.307Z,98120.31
2023-03-06T00:37:24.860Z,98116.78
2023-03-06T00:39:51.487Z,98113.59
2023-03-06T00:42:19.270Z,98110.84
2023-03-06T00:44:46.595Z,98111.38
2023-03-06T00:47:13.970Z,98108.09
2023-03-06T00:49:40.513Z,98107.47
2023-03-06T00:52:07.240Z,98104.47
2023-03-06T00:54:33.899Z,98101.09
2023-03-06T00:57:00.597Z,98094.53
2023-03-06T00:59:28.038Z,98101.69
2023-03-06T01:01:55.220Z,98089.66
2023-03-06T01:04:22.423Z,98091.41
2023-03-06T01:06:49.249Z,98091.41
2023-03-06T01:09:15.978Z,98086.75
2023-03-06T01:11:42.770Z,98089.94
2023-03-06T01:14:09.486Z,98085.97
2023-03-06T01:16:36.161Z,98077.06
2023-03-06T01:19:03.032Z,98078.75
2023-03-06T01:21:29.768Z,98077.16
2023-03-06T01:23:56.717Z,98079.41
2023-03-06T01:26:23.504Z,98068.34
2023-03-06T01:28:50.155Z,98071.91
2023-03-06T01:31:16.792Z,98057.25
2023-03-06T01:33:43.536Z,98056.72
2023-03-06T01:36:12.308Z,98053.47
2023-03-06T01:38:39.218Z,98048.31
2023-03-06T01:41:06.251Z,98051.78
2023-03-06T01:43:38.047Z,98047.69
2023-03-06T01:46:34.137Z,98036.41
2023-03-06T01:49:25.951Z,98033.63
2023-03-06T01:52:14.720Z,98033.94
2023-03-06T01:54:53.694Z,98022.69
2023-03-06T01:57:31.478Z,98026.84
2023-03-06T02:00:14.240Z,98016.66
2023-03-06T02:02:42.919Z,98013.97
2023-03-06T02:05:10.379Z,98013.06
2023-03-06T02:07:38.020Z,98006.50
2023-03-06T02:10:06.015Z,98000.06
2023-03-06T02:12:32.964Z,98004.69
2023-03-06T02:14:59.685Z,98009.09
2023-03-06T02:17:27.070Z,97994.25
2023-03-06T02:20:24.431Z,98000.84
2023-03-06T02:23:28.636Z,97995.66
2023-03-06T02:25:56.066Z,97998.03
2023-03-06T02:28:23.980Z,97995.66
2023-03-06T02:30:52.821Z,97995.47
2023-03-06T02:33:22.359Z,97993.97
2023-03-06T02:36:00.568Z,97991.25
2023-03-06T02:38:37.705Z,97982.78
2023-03-06T02:41:06.022Z,97982.78
2023-03-06T02:43:38.346Z,97979.84
2023-03-06T02:46:06.068Z,97982.56
2023-03-06T02:48:32.816Z,97976.91
2023-03-06T02:50:59.438Z,97975.41
2023-03-06T02:53:26.191Z,97973.19
2023-03-06T02:55:52.948Z,97968.69
2023-03-06T02:58:21.180Z,97967.53
2023-03-06T03:00:48.757Z,97961.09
2023-03-06T03:03:15.526Z,97969.56
2023-03-06T03:05:42.294Z,97968.84
2023-03-06T03:08:08.975Z,97960.25
2023-03-06T03:10:35.591Z,97964.28
2023-03-06T03:13:02.333Z,97964.84
2023-03-06T03:15:29.077Z,97959.19
2023-03-06T03:17:55.851Z,97948.63
2023-03-06T03:20:22.996Z,97950.38
2023-03-06T03:22:51.130Z,97952.28
2023-03-06T03:25:18.555Z,97954.72
2023-03-06T03:27:45.473Z,97955.94
2023-03-06T03:30:12.612Z,97939.56
2023-03-06T03:32:39.279Z,97945.22
2023-03-06T03:35:07.621Z,97946.38
2023-03-06T03:37:35.196Z,97948.38
2023-03-06T03:40:02.106Z,97941.81
2023-03-06T03:42:28.946Z,97944.41
2023-03-06T03:44:55.519Z,97945.91
2023-03-06T03:47:22.143Z,97938.88
2023-03-06T03:49:48.788Z,97930.72
2023-03-06T03:52:15.501Z,97926.50
2023-03-06T03:54:42.164Z,97921.22
2023-03-06T03:57:08.917Z,97921.78
2023-03-06T03:59:35.548Z,97919.09
2023-03-06T04:02:05.021Z,97912.28
2023-03-06T04:04:33.853Z,97902.59
2023-03-06T04:07:01.003Z,97898.94
2023-03-06T04:09:27.735Z,97898.69
2023-03-06T04:11:54.443Z,97896.94
2023-03-06T04:14:22.555Z,97892.00
2023-03-06T04:16:49.223Z,97887.25
2023-03-06T04:19:15.989Z,97883.41
2023-03-06T04:21:42.676Z,97891.28
2023-03-06T04:24:09.340Z,97884.25
2023-03-06T04:26:36.309Z,97889.16
2023-03-06T04:29:02.968Z,97880.22
2023-03-06T04:31:29.890Z,97879.78
2023-03-06T04:33:56.659Z,97879.88
2023-03-06T04:36:31.600Z,97876.69
2023-03-06T04:38:58.385Z,97875.66
2023-03-06T04:41:25.340Z,97874.81
2023-03-06T04:43:52.453Z,97882.56
2023-03-06T04:46:19.145Z,97879.28
2023-03-06T04:48:45.808Z,97870.66
2023-03-06T04:51:13.602Z,97879.97
2023-03-06T04:53:40.282Z,97869.97
2023-03-06T04:56:07.473Z,97865.47
2023-03-06T04:58:34.077Z,97867.25
2023-03-06T05:01:02.471Z,97864.66
2023-03-06T05:03:29.513Z,97852.75
2023-03-06T05:05:56.187Z,97854.47
2023-03-06T05:08:23.902Z,97853.34
2023-03-06T05:10:56.508Z,97855.44
2023-03-06T05:13:23.217Z,97860.13
2023-03-06T05:15:49.837Z,97859.94
2023-03-06T05:18:17.043Z,97855.22
2023-03-06T05:20:43.806Z,97858.03
2023-03-06T05:23:10.831Z,97850.97
2023-03-06T05:25:40.939Z,97844.38
2023-03-06T05:28:08.856Z,97836.00
2023-03-06T05:30:35.926Z,97843.06
2023-03-06T05:33:02.579Z,97836.50
2023-03-06T05:35:29.308Z,97833.66
2023-03-06T05:37:56.673Z,97830.47
2023-03-06T05:40:23.246Z,97830.81
2023-03-06T05:42:50.226Z,97838.69
2023-03-06T05:45:16.861Z,97830.94
2023-03-06T05:47:43.529Z,97821.63
2023-03-06T05:50:11.291Z,97828.81
2023-03-06T05:52:39.864Z,97821.50
2023-03-06T05:55:10.087Z,97824.91
2023-03-06T05:57:36.783Z,97817.63
2023-03-06T06:00:04.126Z,97824.00
2023-03-06T06:02:30.860Z,97818.66
2023-03-06T06:04:57.687Z,97814.19
2023-03-06T06:07:24.307Z,97816.56
2023-03-06T06:09:53.496Z,97825.63
2023-03-06T06:12:20.222Z,97819.88
2023-03-06T06:14:46.863Z,97818.19
2023-03-06T06:17:13.510Z,97815.16
2023-03-06T06:19:40.110Z,97820.34
2023-03-06T06:22:07.164Z,97823.88
2023-03-06T06:24:33.917Z,97822.31
2023-03-06T06:27:03.400Z,97831.50
2023-03-06T06:29:30.589Z,97822.91
2023-03-06T06:31:58.165Z,97825.06
2023-03-06T06:34:25.656Z,97817.63
2023-03-06T06:36:53.759Z,97817.97
2023-03-06T06:39:22.991Z,97819.38
2023-03-06T06:42:02.640Z,97822.28
2023-03-06T06:44:32.487Z,97822.88
2023-03-06T06:49:50.564Z,97825.00
2023-03-06T06:52:19.017Z,97811.78
2023-03-06T06:54:45.849Z,97823.78
2023-03-06T06:57:12.794Z,97818.03
2023-03-06T06:59:39.470Z,97821.66
2023-03-06T07:02:06.325Z,97816.97
2023-03-06T07:04:33.492Z,97824.13
2023-03-06T07:07:01.660Z,97817.31
2023-03-06T07:09:30.459Z,97821.50
2023-03-06T07:11:57.564Z,97826.72
2023-03-06T07:14:24.735Z,97821.53
2023-03-06T07:16:51.437Z,97819.06
2023-03-06T07:19:18.304Z,97822.13
2023-03-06T07:21:45.028Z,97816.81
2023-03-06T07:24:11.731Z,97824.47
2023-03-06T07:26:38.493Z,97824.69
2023-03-06T07:29:05.218Z,97820.69
2023-03-06T07:31:32.390Z,97814.03
2023-03-06T07:33:59.069Z,97810.22
2023-03-06T07:36:25.701Z,97818.59
2023-03-06T07:38:52.277Z,97815.50
2023-03-06T07:41:22.212Z,97826.09
2023-03-06T07:43:49.913Z,97824.81
2023-03-06T07:46:17.298Z,97824.81
2023-03-06T07:48:44.812Z,97812.34
2023-03-06T07:51:19.709Z,97828.09
2023-03-06T07:53:47.591Z,97829.59
2023-03-06T07:56:14.418Z,97832.00
2023-03-06T07:58:43.441Z,97831.41
2023-03-06T08:01:13.064Z,97829.16
2023-03-06T08:03:39.971Z,97823.59
2023-03-06T08:06:17.854Z,97819.34
2023-03-06T08:08:46.133Z,97833.03
2023-03-06T08:11:15.302Z,97835.25
2023-03-06T08:13:42.533Z,97829.84
2023-03-06T08:16:09.876Z,97838.97
2023-03-06T08:18:38.285Z,97833.84
2023-03-06T08:21:13.141Z,97834.09
2023-03-06T08:23:40.628Z,97828.41
2023-03-06T08:26:11.079Z,97830.78
2023-03-06T08:28:37.771Z,97842.06
2023-03-06T08:31:21.784Z,97830.06
2023-03-06T08:33:48.459Z,97840.19
2023-03-06T08:36:15.447Z,97837.59
2023-03-06T08:38:42.127Z,97839.59
2023-03-06T08:41:08.951Z,97833.72
2023-03-06T08:43:36.024Z,97831.00
2023-03-06T08:46:02.991Z,97823.69
2023-03-06T08:48:29.785Z,97826.22
2023-03-06T08:50:56.487Z,97822.91
2023-03-06T08:53:33.462Z,97835.06
2023-03-06T08:56:08.804Z,97831.91
2023-03-06T08:58:35.459Z,97830.69
2023-03-06T09:01:03.893Z,97828.53
2023-03-06T09:03:30.779Z,97829.94
2023-03-06T09:05:57.496Z,97832.41
2023-03-06T09:08:24.184Z,97834.59
2023-03-06T09:10:50.953Z,97825.31
2023-03-06T09:13:17.532Z,97839.16
2023-03-06T09:15:44.176Z,97836.00
2023-03-06T09:18:10.756Z,97840.25
2023-03-06T09:20:37.422Z,97834.97
2023-03-06T09:23:04.038Z,97842.44
2023-03-06T09:25:31.308Z,97836.63
2023-03-06T09:28:10.987Z,97833.22
2023-03-06T09:30:40.633Z,97834.75
2023-03-06T09:33:07.499Z,97842.41
2023-03-06T09:35:34.142Z,97841.25
2023-03-06T09:38:00.789Z,97826.63
2023-03-06T09:40:42.873Z,97832.66
2023-03-06T09:43:19.033Z,97832.44
2023-03-06T09:45:45.858Z,97838.41
2023-03-06T09:48:16.625Z,97836.97
2023-03-06T09:50:53.277Z,97836.00
2023-03-06T09:53:49.915Z,97835.88
2023-03-06T09:56:20.395Z,97832.34
2023-03-06T09:58:54.411Z,97832.59
2023-03-06T10:01:25.278Z,97840.53
2023-03-06T10:04:12.371Z,97836.69
2023-03-06T10:06:48.622Z,97836.63
2023-03-06T10:09:38.746Z,97848.66
2023-03-06T10:12:24.301Z,97830.34
2023-03-06T10:15:08.003Z,97832.53
2023-03-06T10:17:38.051Z,97828.28
2023-03-06T10:20:44.254Z,97825.31
2023-03-06T10:23:47.011Z,97827.75
2023-03-06T10:26:17.422Z,97828.72
2023-03-06T10:28:54.468Z,97826.41
2023-03-06T10:31:27.368Z,97822.66
2023-03-06T10:34:43.810Z,97828.28
2023-03-06T10:37:20.656Z,97831.81
2023-03-06T10:39:52.693Z,97831.53
2023-03-06T10:42:19.266Z,97824.56
2023-03-06T10:44:46.144Z,97825.38
2023-03-06T10:47:30.187Z,97824.13
2023-03-06T10:49:59.609Z,97819.81
2023-03-06T10:52:29.531Z,97823.34
2023-03-06T10:55:24.056Z,97822.97
2023-03-06T10:57:50.762Z,97817.91
2023-03-06T11:00:29.780Z,97816.00
2023-03-06T11:03:18.473Z,97822.53
2023-03-06T11:05:56.496Z,97821.63
2023-03-06T11:08:23.249Z,97816.25
2023-03-06T11:10:58.265Z,97828.69
2023-03-06T11:13:27.553Z,97834.00
2023-03-06T11:16:19.703Z,97818.13
2023-03-06T11:18:59.359Z,97811.06
2023-03-06T11:21:32.104Z,97811.84
2023-03-06T11:24:06.627Z,97805.00
2023-03-06T11:26:38.145Z,97816.25
2023-03-06T11:29:12.472Z,97803.09
2023-03-06T11:31:45.003Z,97806.78
2023-03-06T11:34:24.324Z,97811.84
2023-03-06T11:37:16.967Z,97799.28
2023-03-06T11:39:49.564Z,97811.13
2023-03-06T11:42:20.632Z,97799.91
2023-03-06T11:45:10.330Z,97806.31
2023-03-06T11:47:54.668Z,97799.50
2023-03-06T11:50:46.734Z,97794.81
2023-03-06T11:53:15.926Z,97788.50
2023-03-06T11:56:15.075Z,97790.97
2023-03-06T11:59:01.330Z,97793.44
2023-03-06T12:01:38.871Z,97788.25
2023-03-06T12:04:39.620Z,97793.69
2023-03-06T12:07:17.628Z,97795.31
2023-03-06T12:13:50.159Z,97787.59
2023-03-06T12:17:00.036Z,97786.63
2023-03-06T12:19:31.152Z,97780.78
2023-03-06T12:22:09.538Z,97776.53
2023-03-06T12:25:22.913Z,97777.63
2023-03-06T12:28:18.748Z,97773.81
2023-03-06T12:31:25.054Z,97772.31
2023-03-06T12:34:13.015Z,97771.91
2023-03-06T12:37:02.571Z,97775.44
2023-03-06T12:40:01.869Z,97766.97
2023-03-06T12:42:48.319Z,97775.72
2023-03-06T12:45:25.956Z,97772.84
2023-03-06T12:47:56.698Z,97772.13
2023-03-06T12:50:29.003Z,97783.91
2023-03-06T12:52:58.920Z,97765.72
2023-03-06T12:55:26.228Z,97772.69
2023-03-06T12:57:54.047Z,97780.91
2023-03-06T13:00:58.755Z,97773.94
2023-03-06T13:03:54.650Z,97770.63
2023-03-06T13:07:01.960Z,97769.09
2023-03-06T13:10:05.012Z,97782.53
2023-03-06T13:12:51.763Z,97785.25
2023-03-06T13:15:41.622Z,97787.00
2023-03-06T13:22:03.699Z,97807.41
2023-03-06T13:24:35.741Z,97805.28
2023-03-06T13:27:45.770Z,97804.56
2023-03-06T13:30:43.591Z,97801.53
2023-03-06T13:33:52.551Z,97790.94
2023-03-06T13:36:30.619Z,97788.97
2023-03-06T13:38:59.550Z,97789.69
2023-03-06T13:41:33.312Z,97788.81
2023-03-06T13:44:01.970Z,97795.03
2023-03-06T13:46:31.531Z,97792.47
2023-03-06T13:49:13.282Z,97792.94
2023-03-06T13:52:09.474Z,97791.22
2023-03-06T13:55:14.182Z,97792.63
2023-03-06T13:58:10.251Z,97796.72
2023-03-06T14:01:07.896Z,97788.53
2023-03-06T14:04:01.680Z,97788.28
2023-03-06T14:06:46.942Z,97789.91
2023-03-06T14:09:32.019Z,97783.09
2023-03-06T14:12:02.784Z,97768.88
2023-03-06T14:14:36.360Z,97766.69
2023-03-06T14:17:05.247Z,97757.69
2023-03-06T14:19:37.507Z,97756.28
2023-03-06T14:22:06.106Z,97758.94
2023-03-06T14:24:42.503Z,97757.53
2023-03-06T14:27:17.302Z,97748.50
2023-03-06T14:29:44.689Z,97741.25
2023-03-06T14:32:12.459Z,97750.97
2023-03-06T14:34:41.215Z,97749.47
2023-03-06T14:37:20.321Z,97753.03
2023-03-06T14:39:47.153Z,97747.28
2023-03-06T14:42:28.574Z,97744.00
2023-03-06T14:45:03.687Z,97737.13
2023-03-06T14:47:32.646Z,97735.50
2023-03-06T14:50:27.956Z,97741.53
2023-03-06T14:52:59.965Z,97730.84
2023-03-06T14:55:28.679Z,97734.41
2023-03-06T14:58:03.282Z,97739.06
2023-03-06T15:00:35.814Z,97737.97
2023-03-06T15:03:05.571Z,97738.38
2023-03-06T15:05:32.751Z,97729.75
2023-03-06T15:08:04.549Z,97738.78
2023-03-06T15:10:33.541Z,97732.22
2023-03-06T15:13:21.686Z,97736.84
2023-03-06T15:16:15.798Z,97734.97
2023-03-06T15:19:01.375Z,97740.16
2023-03-06T15:21:31.438Z,97737.00
2023-03-06T15:23:58.273Z,97736.03
2023-03-06T15:26:31.631Z,97730.84
2023-03-06T15:29:31.045Z,97732.19
2023-03-06T15:32:25.475Z,97729.34
2023-03-06T15:35:30.242Z,97739.56
2023-03-06T15:37:57.606Z,97735.88
2023-03-06T15:40:26.714Z,97731.09
2023-03-06T15:42:53.462Z,97730.00
2023-03-06T15:45:22.379Z,97733.97
2023-03-06T15:47:51.097Z,97742.47
2023-03-06T15:50:23.724Z,97734.91
2023-03-06T15:52:50.427Z,97740.25
2023-03-06T15:55:19.754Z,97734.78
2023-03-06T15:58:05.014Z,97735.34
2023-03-06T16:00:34.402Z,97735.34
2023-03-06T16:03:02.342Z,97734.66
2023-03-06T16:05:29.370Z,97735.34
2023-03-06T16:07:56.465Z,97726.88
2023-03-06T16:10:25.873Z,97738.78
2023-03-06T16:12:55.795Z,97727.13
2023-03-06T16:15:29.289Z,97728.63
2023-03-06T16:17:57.008Z,97730.69
2023-03-06T16:20:25.717Z,97724.28
2023-03-06T16:22:53.964Z,97726.31
2023-03-06T16:25:21.716Z,97731.66
2023-03-06T16:27:55.586Z,97729.75
2023-03-06T16:30:24.382Z,97733.81
2023-03-06T16:32:51.035Z,97724.41
2023-03-06T16:35:18.694Z,97729.19
2023-03-06T16:37:52.224Z,97722.47
2023-03-06T16:40:22.648Z,97735.03
2023-03-06T16:42:50.332Z,97730.13
2023-03-06T16:45:18.312Z,97736.53
2023-03-06T16:47:46.388Z,97736.97
2023-03-06T16:50:27.514Z,97746.25
2023-03-06T16:52:55.638Z,97746.94
2023-03-06T16:55:23.803Z,97737.88
2023-03-06T16:57:50.746Z,97744.69
2023-03-06T17:00:18.818Z,97750.31
2023-03-06T17:02:47.620Z,97743.19
2023-03-06T17:05:14.540Z,97751.25
2023-03-06T17:07:41.566Z,97748.22
2023-03-06T17:10:11.067Z,97748.75
2023-03-06T17:12:37.753Z,97741.22
2023-03-06T17:15:06.127Z,97741.09
2023-03-06T17:17:32.981Z,97744.47
2023-03-06T17:19:59.846Z,97742.44
2023-03-06T17:22:27.544Z,97742.72
2023-03-06T17:24:54.469Z,97740.25
2023-03-06T17:27:22.381Z,97749.25
2023-03-06T17:29:49.004Z,97755.81
2023-03-06T17:32:15.809Z,97755.91
2023-03-06T17:34:42.837Z,97766.63
2023-03-06T17:37:09.508Z,97751.72
2023-03-06T17:39:37.657Z,97755.66
2023-03-06T17:42:05.643Z,97755.25
2023-03-06T17:44:34.123Z,97762.06
2023-03-06T17:47:01.470Z,97765.06
2023-03-06T17:49:28.238Z,97761.88
2023-03-06T17:51:56.790Z,97768.16
2023-03-06T17:54:26.217Z,97762.09
2023-03-06T17:57:01.119Z,97770.22
2023-03-06T17:59:28.320Z,97769.44
2023-03-06T18:01:58.879Z,97774.41
2023-03-06T18:04:25.737Z,97769.56
2023-03-06T18:06:52.476Z,97761.22
2023-03-06T18:09:19.383Z,97761.22
2023-03-06T18:11:45.971Z,97757.38
2023-03-06T18:14:12.581Z,97762.41
2023-03-06T18:16:39.236Z,97758.19
2023-03-06T18:19:05.905Z,97761.50
2023-03-06T18:21:32.558Z,97756.22
2023-03-06T18:23:59.309Z,97761.91
2023-03-06T18:26:28.212Z,97763.50
2023-03-06T18:29:01.642Z,97765.47
2023-03-06T18:31:33.761Z,97762.19
2023-03-06T18:34:03.709Z,97762.75
2023-03-06T18:36:32.077Z,97761.34
2023-03-06T18:39:00.893Z,97756.16
2023-03-06T18:41:27.562Z,97751.66
2023-03-06T18:43:55.905Z,97741.91
2023-03-06T18:46:23.387Z,97746.81
2023-03-06T18:48:50.393Z,97752.50
2023-03-06T18:51:18.050Z,97751.53
2023-03-06T18:53:44.875Z,97746.47
2023-03-06T18:56:16.880Z,97751.78
2023-03-06T18:58:44.529Z,97747.09
2023-03-06T19:01:12.208Z,97749.94
2023-03-06T19:03:38.950Z,97741.63
2023-03-06T19:06:08.094Z,97734.19
2023-03-06T19:08:36.093Z,97743.59
2023-03-06T19:11:08.012Z,97738.91
2023-03-06T19:13:34.816Z,97737.72
2023-03-06T19:16:02.030Z,97733.38
2023-03-06T19:18:31.060Z,97737.88
2023-03-06T19:21:11.447Z,97738.00
2023-03-06T19:23:38.205Z,97733.53
2023-03-06T19:26:05.326Z,97736.03
2023-03-06T19:28:32.665Z,97734.03
2023-03-06T19:31:00.486Z,97730.41
2023-03-06T19:33:27.179Z,97734.44
2023-03-06T19:35:56.231Z,97735.50
2023-03-06T19:38:23.039Z,97732.47
2023-03-06T19:40:50.716Z,97736.56
2023-03-06T19:43:17.491Z,97731.16
2023-03-06T19:45:44.874Z,97729.50
2023-03-06T19:48:12.656Z,97729.63
2023-03-06T19:50:40.513Z,97724.91
2023-03-06T19:53:08.288Z,97700.38
2023-03-06T19:55:35.054Z,97721.75
2023-03-06T19:58:02.118Z,97725.41
2023-03-06T20:00:28.942Z,97721.09
2023-03-06T20:02:56.241Z,97729.53
2023-03-06T20:05:22.984Z,97722.25
2023-03-06T20:07:50.179Z,97725.19
2023-03-06T20:10:17.591Z,97719.06
2023-03-06T20:12:44.546Z,97719.75
2023-03-06T20:15:11.427Z,97716.38
2023-03-06T20:17:40.747Z,97716.03
2023-03-06T20:20:10.842Z,97715.66
2023-03-06T20:22:37.720Z,97712.28
2023-03-06T20:25:05.244Z,97709.31
2023-03-06T20:27:32.944Z,97708.97
2023-03-06T20:29:59.790Z,97704.50
2023-03-06T20:32:26.955Z,97708.75
2023-03-06T20:34:53.564Z,97704.28
2023-03-06T20:37:20.126Z,97715.78
2023-03-06T20:39:47.002Z,97708.25
2023-03-06T20:42:13.639Z,97700.50
2023-03-06T20:44:40.297Z,97705.22
2023-03-06T20:47:06.897Z,97700.16
2023-03-06T20:49:33.532Z,97694.88
2023-03-06T20:52:00.164Z,97693.94
2023-03-06T20:54:26.788Z,97693.22
2023-03-06T20:56:53.417Z,97688.97
2023-03-06T20:59:20.216Z,97686.25
2023-03-06T21:01:48.149Z,97687.53
2023-03-06T21:04:15.517Z,97676.94
2023-03-06T21:06:46.744Z,97673.19
2023-03-06T21:09:16.279Z,97671.53
2023-03-06T21:11:42.939Z,97665.19
2023-03-06T21:14:09.800Z,97664.72
2023-03-06T21:16:36.574Z,97658.72
2023-03-06T21:19:03.851Z,97656.84
2023-03-06T21:21:33.506Z,97659.53
2023-03-06T21:24:01.106Z,97654.94
2023-03-06T21:26:33.938Z,97654.94
2023-03-06T21:29:01.712Z,97658.72
2023-03-06T21:31:28.920Z,97651.25
2023-03-06T21:33:56.438Z,97649.00
2023-03-06T21:36:23.831Z,97642.66
2023-03-06T21:38:52.376Z,97643.34
2023-03-06T21:41:24.945Z,97650.28
2023-03-06T21:43:59.252Z,97640.31
2023-03-06T21:46:26.864Z,97634.19
2023-03-06T21:48:53.840Z,97629.72
2023-03-06T21:51:23.778Z,97630.16
2023-03-06T21:53:51.173Z,97634.84
2023-03-06T21:56:19.357Z,97630.28
2023-03-06T21:58:46.063Z,97622.63
2023-03-06T22:01:16.266Z,97621.13
2023-03-06T22:03:43.119Z,97623.56
2023-03-06T22:06:15.374Z,97621.41
2023-03-06T22:08:42.745Z,97612.97
2023-03-06T22:11:15.021Z,97614.53
2023-03-06T22:13:41.864Z,97601.94
2023-03-06T22:16:08.888Z,97606.19
2023-03-06T22:18:36.240Z,97607.38
2023-03-06T22:21:10.202Z,97602.19
2023-03-06T22:23:37.131Z,97600.31
2023-03-06T22:26:09.417Z,97594.06
2023-03-06T22:28:36.365Z,97591.59
2023-03-06T22:31:05.372Z,97589.00
2023-03-06T22:33:31.998Z,97587.59
2023-03-06T22:36:05.492Z,97583.66
2023-03-06T22:38:33.858Z,97581.69
2023-03-06T22:41:00.887Z,97583.00
2023-03-06T22:43:27.748Z,97574.31
2023-03-06T22:45:54.522Z,97568.91
2023-03-06T22:48:21.300Z,97575.72
2023-03-06T22:50:47.943Z,97556.09
2023-03-06T22:53:14.568Z,97556.13
2023-03-06T22:55:41.463Z,97555.19
2023-03-06T22:58:08.185Z,97554.94
2023-03-06T23:00:35.232Z,97557.44
2023-03-06T23:03:02.220Z,97547.22
2023-03-06T23:05:29.568Z,97547.41
2023-03-06T23:07:56.360Z,97547.22
2023-03-06T23:10:23.087Z,97547.22
2023-03-06T23:12:49.691Z,97546.69
2023-03-06T23:15:16.360Z,97547.00
2023-03-06T23:17:43.041Z,97544.53
2023-03-06T23:20:10.412Z,97545.38
2023-03-06T23:22:37.340Z,97540.47
2023-03-06T23:25:04.551Z,97536.53
2023-03-06T23:27:31.366Z,97538.81
2023-03-06T23:29:59.231Z,97523.69
2023-03-06T23:32:26.199Z,97521.31
2023-03-06T23:34:52.859Z,97524.88
2023-03-06T23:37:19.544Z,97519.16
2023-03-06T23:39:46.146Z,97525.28
2023-03-06T23:42:12.744Z,97528.41
2023-03-06T23:44:39.601Z,97512.41
2023-03-06T23:47:06.236Z,97521.81
2023-03-06T23:49:33.037Z,97514.06
2023-03-06T23:51:59.721Z,97509.88
2023-03-06T23:54:26.454Z,97526.38
2023-03-06T23:56:53.070Z,97522.25
2023-03-06T23:59:19.702Z,97511.28
